Time,TemperatureF,DewpointF,PressureIn,WindDirection,WindDirectionDegrees,WindSpeedMPH,WindSpeedGustMPH,Humidity,HourlyPrecipIn,Conditions,Clouds,dailyrainin,SoftwareType,DateUTC
2013-05-30 00:12:00,49.0,45.0,-100.00,NW,305,6.0,13.0,85,0.00,,,0.00,,2013-05-30 07:12:00,
2013-05-30 00:21:00,49.0,45.0,-100.00,NW,305,6.0,13.0,85,0.00,,,0.00,,2013-05-30 07:21:00,
2013-05-30 00:31:00,49.0,45.0,-100.00,NW,305,6.0,13.0,85,0.00,,,0.00,,2013-05-30 07:31:00,
2013-05-30 00:42:00,49.0,45.0,-100.00,NW,305,6.0,13.0,85,0.00,,,0.00,,2013-05-30 07:42:00,
2013-05-30 00:52:00,49.0,45.0,-100.00,NW,305,6.0,13.0,85,0.00,,,0.00,,2013-05-30 07:52:00,
2013-05-30 01:11:00,48.0,42.0,-100.00,NW,311,4.0,8.0,79,0.00,,,0.00,,2013-05-30 08:11:00,
2013-05-30 01:21:00,48.0,42.0,-100.00,NW,311,4.0,8.0,79,0.00,,,0.00,,2013-05-30 08:21:00,
2013-05-30 01:31:00,48.0,42.0,-100.00,NW,311,4.0,8.0,79,0.00,,,0.00,,2013-05-30 08:31:00,
2013-05-30 01:42:00,48.0,42.0,-100.00,NW,311,4.0,8.0,79,0.00,,,0.00,,2013-05-30 08:42:00,
2013-05-30 01:52:00,48.0,42.0,-100.00,NW,311,4.0,8.0,79,0.00,,,0.00,,2013-05-30 08:52:00,
2013-05-30 01:53:00,48.0,35.0,-100.00,NW,318,4.0,9.0,61,0.00,,,0.00,,2013-05-30 08:53:00,
2013-05-30 02:11:00,48.0,35.0,-100.00,NW,318,4.0,9.0,61,0.00,,,0.00,,2013-05-30 09:11:00,
2013-05-30 02:21:00,48.0,35.0,-100.00,NW,318,4.0,9.0,61,0.00,,,0.00,,2013-05-30 09:21:00,
2013-05-30 02:42:00,48.0,35.0,-100.00,NW,318,4.0,9.0,61,0.00,,,0.00,,2013-05-30 09:42:00,
2013-05-30 03:12:00,48.0,34.0,-100.00,NNW,327,4.0,7.0,58,0.00,,,0.00,,2013-05-30 10:12:00,
2013-05-30 03:22:00,48.0,34.0,-100.00,NNW,327,4.0,7.0,58,0.00,,,0.00,,2013-05-30 10:22:00,
2013-05-30 03:42:00,48.0,34.0,-100.00,NNW,327,4.0,7.0,58,0.00,,,0.00,,2013-05-30 10:42:00,
2013-05-30 03:52:00,48.0,34.0,-100.00,NNW,327,4.0,7.0,58,0.00,,,0.00,,2013-05-30 10:52:00,
2013-05-30 04:12:00,48.0,25.0,-100.00,NNW,343,4.0,7.0,41,0.00,,,0.00,,2013-05-30 11:12:00,
2013-05-30 04:21:00,48.0,25.0,-100.00,NNW,343,4.0,7.0,41,0.00,,,0.00,,2013-05-30 11:21:00,
2013-05-30 04:32:00,48.0,25.0,-100.00,NNW,343,4.0,7.0,41,0.00,,,0.00,,2013-05-30 11:32:00,
2013-05-30 04:42:00,48.0,25.0,-100.00,NNW,343,4.0,7.0,41,0.00,,,0.00,,2013-05-30 11:42:00,
2013-05-30 04:52:00,48.0,25.0,-100.00,NNW,343,4.0,7.0,41,0.00,,,0.00,,2013-05-30 11:52:00,
2013-05-30 05:11:00,47.0,23.0,-100.00,ENE,57,2.0,6.0,38,0.00,,,0.00,,2013-05-30 12:11:00,
2013-05-30 05:22:00,47.0,23.0,-100.00,ENE,57,2.0,6.0,38,0.00,,,0.00,,2013-05-30 12:22:00,
2013-05-30 05:42:00,47.0,23.0,-100.00,ENE,57,2.0,6.0,38,0.00,,,0.00,,2013-05-30 12:42:00,
2013-05-30 05:52:00,47.0,23.0,-100.00,ENE,57,2.0,6.0,38,0.00,,,0.00,,2013-05-30 12:52:00,
2013-05-30 06:11:00,44.0,16.0,-100.00,ESE,105,3.0,6.0,32,0.00,,,0.00,,2013-05-30 13:11:00,
2013-05-30 06:22:00,44.0,16.0,-100.00,ESE,105,3.0,6.0,32,0.00,,,0.00,,2013-05-30 13:22:00,
2013-05-30 06:41:00,44.0,16.0,-100.00,ESE,105,3.0,6.0,32,0.00,,,0.00,,2013-05-30 13:41:00,
2013-05-30 06:52:00,44.0,16.0,-100.00,ESE,105,3.0,6.0,32,0.00,,,0.00,,2013-05-30 13:52:00,
2013-05-30 07:11:00,45.0,25.0,-100.00,ESE,122,2.0,5.0,45,0.00,,,0.00,,2013-05-30 14:11:00,
2013-05-30 07:21:00,45.0,25.0,-100.00,ESE,122,2.0,5.0,45,0.00,,,0.00,,2013-05-30 14:21:00,
2013-05-30 07:42:00,45.0,25.0,-100.00,ESE,122,2.0,5.0,45,0.00,,,0.00,,2013-05-30 14:42:00,
2013-05-30 07:51:00,45.0,25.0,-100.00,ESE,122,2.0,5.0,45,0.00,,,0.00,,2013-05-30 14:51:00,
2013-05-30 08:11:00,54.0,33.0,-100.00,North,352,2.0,5.0,44,0.00,,,0.00,,2013-05-30 15:11:00,
2013-05-30 08:22:00,54.0,33.0,-100.00,North,352,2.0,5.0,44,0.00,,,0.00,,2013-05-30 15:22:00,
2013-05-30 08:33:00,54.0,33.0,-100.00,North,352,2.0,5.0,44,0.00,,,0.00,,2013-05-30 15:33:00,
2013-05-30 08:42:00,54.0,33.0,-100.00,North,352,2.0,5.0,44,0.00,,,0.00,,2013-05-30 15:42:00,
2013-05-30 08:52:00,54.0,33.0,-100.00,North,352,2.0,5.0,44,0.00,,,0.00,,2013-05-30 15:52:00,
2013-05-30 09:12:00,59.0,36.0,-100.00,NW,310,4.0,7.0,42,0.00,,,0.00,,2013-05-30 16:12:00,
2013-05-30 09:22:00,59.0,36.0,-100.00,NW,310,4.0,7.0,42,0.00,,,0.00,,2013-05-30 16:22:00,
2013-05-30 09:33:00,59.0,36.0,-100.00,NW,310,4.0,7.0,42,0.00,,,0.00,,2013-05-30 16:33:00,
2013-05-30 09:42:00,59.0,36.0,-100.00,NW,310,4.0,7.0,42,0.00,,,0.00,,2013-05-30 16:42:00,
2013-05-30 09:52:00,59.0,36.0,-100.00,NW,310,4.0,7.0,42,0.00,,,0.00,,2013-05-30 16:52:00,
2013-05-30 10:11:00,64.0,28.0,-100.00,WNW,298,5.0,10.0,26,0.00,,,0.00,,2013-05-30 17:11:00,
2013-05-30 10:22:00,64.0,28.0,-100.00,WNW,298,5.0,10.0,26,0.00,,,0.00,,2013-05-30 17:22:00,
2013-05-30 10:32:00,64.0,28.0,-100.00,WNW,298,5.0,10.0,26,0.00,,,0.00,,2013-05-30 17:32:00,
2013-05-30 10:42:00,64.0,28.0,-100.00,WNW,298,5.0,10.0,26,0.00,,,0.00,,2013-05-30 17:42:00,
2013-05-30 10:52:00,64.0,28.0,-100.00,WNW,298,5.0,10.0,26,0.00,,,0.00,,2013-05-30 17:52:00,
2013-05-30 11:11:00,66.0,35.0,-100.00,WNW,290,5.0,8.0,32,0.00,,,0.00,,2013-05-30 18:11:00,
2013-05-30 11:21:00,66.0,35.0,-100.00,WNW,290,5.0,8.0,32,0.00,,,0.00,,2013-05-30 18:21:00,
2013-05-30 11:32:00,66.0,35.0,-100.00,WNW,290,5.0,8.0,32,0.00,,,0.00,,2013-05-30 18:32:00,
2013-05-30 11:42:00,66.0,35.0,-100.00,WNW,290,5.0,8.0,32,0.00,,,0.00,,2013-05-30 18:42:00,
2013-05-30 11:51:00,66.0,35.0,-100.00,WNW,290,5.0,8.0,32,0.00,,,0.00,,2013-05-30 18:51:00,
2013-05-30 12:11:00,67.0,45.0,-100.00,West,278,4.0,9.0,45,0.00,,,0.00,,2013-05-30 19:11:00,
2013-05-30 12:22:00,67.0,45.0,-100.00,West,278,4.0,9.0,45,0.00,,,0.00,,2013-05-30 19:22:00,
2013-05-30 12:32:00,67.0,45.0,-100.00,West,278,4.0,9.0,45,0.00,,,0.00,,2013-05-30 19:32:00,
2013-05-30 12:42:00,67.0,45.0,-100.00,West,278,4.0,9.0,45,0.00,,,0.00,,2013-05-30 19:42:00,
2013-05-30 12:52:00,67.0,45.0,-100.00,West,278,4.0,9.0,45,0.00,,,0.00,,2013-05-30 19:52:00,
2013-05-30 13:11:00,66.0,45.0,-100.00,WNW,293,5.0,9.0,46,0.00,,,0.00,,2013-05-30 20:11:00,
2013-05-30 13:22:00,66.0,45.0,-100.00,WNW,293,5.0,9.0,46,0.00,,,0.00,,2013-05-30 20:22:00,
2013-05-30 13:33:00,66.0,45.0,-100.00,WNW,293,5.0,9.0,46,0.00,,,0.00,,2013-05-30 20:33:00,
2013-05-30 13:41:00,66.0,45.0,-100.00,WNW,293,5.0,9.0,46,0.00,,,0.00,,2013-05-30 20:41:00,
2013-05-30 13:51:00,66.0,45.0,-100.00,WNW,293,5.0,9.0,46,0.00,,,0.00,,2013-05-30 20:51:00,
2013-05-30 13:53:00,68.0,42.0,-100.00,WNW,294,6.0,10.0,39,0.00,,,0.00,,2013-05-30 20:53:00,
2013-05-30 14:11:00,68.0,42.0,-100.00,WNW,294,6.0,10.0,39,0.00,,,0.00,,2013-05-30 21:11:00,
2013-05-30 14:22:00,68.0,42.0,-100.00,WNW,294,6.0,10.0,39,0.00,,,0.00,,2013-05-30 21:22:00,
2013-05-30 14:33:00,68.0,42.0,-100.00,WNW,294,6.0,10.0,39,0.00,,,0.00,,2013-05-30 21:33:00,
2013-05-30 14:42:00,68.0,42.0,-100.00,WNW,294,6.0,10.0,39,0.00,,,0.00,,2013-05-30 21:42:00,
2013-05-30 15:12:00,67.0,40.0,-100.00,WNW,294,7.0,12.0,37,0.00,,,0.00,,2013-05-30 22:12:00,
2013-05-30 15:22:00,67.0,40.0,-100.00,WNW,294,7.0,12.0,37,0.00,,,0.00,,2013-05-30 22:22:00,
2013-05-30 15:33:00,67.0,40.0,-100.00,WNW,294,7.0,12.0,37,0.00,,,0.00,,2013-05-30 22:33:00,
2013-05-30 15:42:00,67.0,40.0,-100.00,WNW,294,7.0,12.0,37,0.00,,,0.00,,2013-05-30 22:42:00,
2013-05-30 15:52:00,67.0,40.0,-100.00,WNW,294,7.0,12.0,37,0.00,,,0.00,,2013-05-30 22:52:00,
2013-05-30 16:11:00,68.0,38.0,-100.00,WNW,293,7.0,13.0,33,0.00,,,0.00,,2013-05-30 23:11:00,
2013-05-30 16:22:00,68.0,38.0,-100.00,WNW,293,7.0,13.0,33,0.00,,,0.00,,2013-05-30 23:22:00,
2013-05-30 16:31:00,68.0,38.0,-100.00,WNW,293,7.0,13.0,33,0.00,,,0.00,,2013-05-30 23:31:00,
2013-05-30 16:41:00,68.0,38.0,-100.00,WNW,293,7.0,13.0,33,0.00,,,0.00,,2013-05-30 23:41:00,
2013-05-30 16:52:00,68.0,38.0,-100.00,WNW,293,7.0,13.0,33,0.00,,,0.00,,2013-05-30 23:52:00,
2013-05-30 17:11:00,66.0,34.0,-100.00,WNW,289,7.0,13.0,30,0.00,,,0.00,,2013-05-31 00:11:00,
2013-05-30 17:21:00,66.0,34.0,-100.00,WNW,289,7.0,13.0,30,0.00,,,0.00,,2013-05-31 00:21:00,
2013-05-30 17:32:00,66.0,34.0,-100.00,WNW,289,7.0,13.0,30,0.00,,,0.00,,2013-05-31 00:32:00,
2013-05-30 17:42:00,66.0,34.0,-100.00,WNW,289,7.0,13.0,30,0.00,,,0.00,,2013-05-31 00:42:00,
2013-05-30 17:51:00,66.0,34.0,-100.00,WNW,289,7.0,13.0,30,0.00,,,0.00,,2013-05-31 00:51:00,
2013-05-30 18:12:00,65.0,34.0,-100.00,WNW,285,7.0,12.0,31,0.00,,,0.00,,2013-05-31 01:12:00,
2013-05-30 18:21:00,65.0,34.0,-100.00,WNW,285,7.0,12.0,31,0.00,,,0.00,,2013-05-31 01:21:00,
2013-05-30 18:31:00,65.0,34.0,-100.00,WNW,285,7.0,12.0,31,0.00,,,0.00,,2013-05-31 01:31:00,
2013-05-30 18:42:00,65.0,34.0,-100.00,WNW,285,7.0,12.0,31,0.00,,,0.00,,2013-05-31 01:42:00,
2013-05-30 18:51:00,65.0,34.0,-100.00,WNW,285,7.0,12.0,31,0.00,,,0.00,,2013-05-31 01:51:00,
2013-05-30 19:11:00,61.0,35.0,-100.00,NW,305,7.0,13.0,37,0.00,,,0.00,,2013-05-31 02:11:00,
2013-05-30 19:21:00,61.0,35.0,-100.00,NW,305,7.0,13.0,37,0.00,,,0.00,,2013-05-31 02:21:00,
2013-05-30 19:32:00,61.0,35.0,-100.00,NW,305,7.0,13.0,37,0.00,,,0.00,,2013-05-31 02:32:00,
2013-05-30 19:41:00,61.0,35.0,-100.00,NW,305,7.0,13.0,37,0.00,,,0.00,,2013-05-31 02:41:00,
2013-05-30 19:51:00,61.0,35.0,-100.00,NW,305,7.0,13.0,37,0.00,,,0.00,,2013-05-31 02:51:00,
2013-05-30 19:53:00,56.0,40.0,-100.00,WNW,301,6.0,12.0,54,0.00,,,0.00,,2013-05-31 02:53:00,
2013-05-30 20:11:00,56.0,40.0,-100.00,WNW,301,6.0,12.0,54,0.00,,,0.00,,2013-05-31 03:11:00,
2013-05-30 20:21:00,56.0,40.0,-100.00,WNW,301,6.0,12.0,54,0.00,,,0.00,,2013-05-31 03:21:00,
2013-05-30 20:33:00,56.0,40.0,-100.00,WNW,301,6.0,12.0,54,0.00,,,0.00,,2013-05-31 03:33:00,
2013-05-30 20:43:00,56.0,40.0,-100.00,WNW,301,6.0,12.0,54,0.00,,,0.00,,2013-05-31 03:43:00,
2013-05-30 21:12:00,54.0,40.0,-100.00,WNW,295,6.0,11.0,59,0.00,,,0.00,,2013-05-31 04:12:00,
2013-05-30 21:22:00,54.0,40.0,-100.00,WNW,295,6.0,11.0,59,0.00,,,0.00,,2013-05-31 04:22:00,
2013-05-30 21:32:00,54.0,40.0,-100.00,WNW,295,6.0,11.0,59,0.00,,,0.00,,2013-05-31 04:32:00,
2013-05-30 21:42:00,54.0,40.0,-100.00,WNW,295,6.0,11.0,59,0.00,,,0.00,,2013-05-31 04:42:00,
2013-05-30 21:52:00,54.0,40.0,-100.00,WNW,295,6.0,11.0,59,0.00,,,0.00,,2013-05-31 04:52:00,
2013-05-30 22:12:00,54.0,39.0,-100.00,NW,305,6.0,11.0,56,0.00,,,0.00,,2013-05-31 05:12:00,
2013-05-30 22:22:00,54.0,39.0,-100.00,NW,305,6.0,11.0,56,0.00,,,0.00,,2013-05-31 05:22:00,
2013-05-30 22:31:00,54.0,39.0,-100.00,NW,305,6.0,11.0,56,0.00,,,0.00,,2013-05-31 05:31:00,
2013-05-30 22:42:00,54.0,39.0,-100.00,NW,305,6.0,11.0,56,0.00,,,0.00,,2013-05-31 05:42:00,
2013-05-30 22:51:00,54.0,39.0,-100.00,NW,305,6.0,11.0,56,0.00,,,0.00,,2013-05-31 05:51:00,
2013-05-30 23:12:00,54.0,39.0,-100.00,WNW,286,6.0,14.0,57,0.00,,,0.00,,2013-05-31 06:12:00,
2013-05-30 23:21:00,54.0,39.0,-100.00,WNW,286,6.0,14.0,57,0.00,,,0.00,,2013-05-31 06:21:00,
2013-05-30 23:31:00,54.0,39.0,-100.00,WNW,286,6.0,14.0,57,0.00,,,0.00,,2013-05-31 06:31:00,
2013-05-30 23:41:00,54.0,39.0,-100.00,WNW,286,6.0,14.0,57,0.00,,,0.00,,2013-05-31 06:41:00,
2013-05-30 23:51:00,54.0,39.0,-100.00,WNW,286,6.0,14.0,57,0.00,,,0.00,,2013-05-31 06:51:00,